createdAt,value
2022-10-03T00:01:44.472Z,3.37
2022-10-03T00:04:39.654Z,2.85
2022-10-03T00:07:26.944Z,3.90
2022-10-03T00:10:12.396Z,4.30
2022-10-03T00:13:01.785Z,2.62
2022-10-03T00:16:07.677Z,3.47
2022-10-03T00:18:48.199Z,3.22
2022-10-03T00:21:26.349Z,3.83
2022-10-03T00:24:30.546Z,3.20
2022-10-03T00:27:20.982Z,3.58
2022-10-03T00:30:02.254Z,2.55
2022-10-03T00:32:54.793Z,2.95
2022-10-03T00:35:42.632Z,3.67
2022-10-03T00:38:28.340Z,2.65
2022-10-03T00:41:25.621Z,3.85
2022-10-03T00:44:24.094Z,2.85
2022-10-03T00:47:22.807Z,2.87
2022-10-03T00:50:03.244Z,3.92
2022-10-03T00:53:04.135Z,3.90
2022-10-03T00:56:03.748Z,3.05
2022-10-03T00:58:49.197Z,3.80
2022-10-03T01:01:32.866Z,3.60
2022-10-03T01:04:30.597Z,4.47
2022-10-03T01:07:38.433Z,3.65
2022-10-03T01:10:24.118Z,3.75
2022-10-03T01:12:58.271Z,3.60
2022-10-03T01:16:05.032Z,2.65
2022-10-03T01:18:57.156Z,3.30
2022-10-03T01:21:46.821Z,3.80
2022-10-03T01:25:11.538Z,3.78
2022-10-03T01:28:41.847Z,6.57
2022-10-03T01:31:29.216Z,4.43
2022-10-03T01:34:37.756Z,3.78
2022-10-03T01:37:18.298Z,3.90
2022-10-03T01:40:15.621Z,4.53
2022-10-03T01:43:04.834Z,4.57
2022-10-03T01:45:55.224Z,4.22
2022-10-03T01:48:56.399Z,5.22
2022-10-03T01:51:46.294Z,4.85
2022-10-03T01:54:29.685Z,4.62
2022-10-03T01:57:09.735Z,4.07
2022-10-03T01:59:43.650Z,6.03
2022-10-03T02:02:31.642Z,4.40
2022-10-03T02:05:09.962Z,5.53
2022-10-03T02:07:48.585Z,6.10
2022-10-03T02:10:41.415Z,4.30
2022-10-03T02:13:14.212Z,5.25
2022-10-03T02:15:42.035Z,4.53
2022-10-03T02:18:58.080Z,3.87
2022-10-03T02:21:32.206Z,6.60
2022-10-03T02:24:23.857Z,3.95
2022-10-03T02:27:33.342Z,4.97
2022-10-03T02:30:15.959Z,4.30
2022-10-03T02:33:05.149Z,5.75
2022-10-03T02:35:51.585Z,5.32
2022-10-03T02:39:00.444Z,5.05
2022-10-03T02:42:04.455Z,5.22
2022-10-03T02:45:04.240Z,4.75
2022-10-03T02:48:30.631Z,4.22
2022-10-03T02:51:56.568Z,4.80
2022-10-03T02:54:56.691Z,7.40
2022-10-03T02:57:57.385Z,5.78
2022-10-03T03:00:59.278Z,5.60
2022-10-03T03:03:59.201Z,5.72
2022-10-03T03:06:53.056Z,5.50
2022-10-03T03:09:46.144Z,5.13
2022-10-03T03:12:41.282Z,5.72
2022-10-03T03:15:48.185Z,5.55
2022-10-03T03:18:40.050Z,5.87
2022-10-03T03:21:28.099Z,5.87
2022-10-03T03:25:04.461Z,5.15
2022-10-03T03:27:48.440Z,5.15
2022-10-03T03:30:36.443Z,4.93
2022-10-03T03:33:26.622Z,5.57
2022-10-03T03:36:24.283Z,5.05
2022-10-03T03:39:11.770Z,8.98
2022-10-03T03:42:08.735Z,5.03
2022-10-03T03:45:06.359Z,9.17
2022-10-03T03:48:18.914Z,5.90
2022-10-03T03:51:14.472Z,5.90
2022-10-03T03:54:19.546Z,5.45
2022-10-03T03:57:09.652Z,5.18
2022-10-03T04:00:13.669Z,6.23
2022-10-03T04:03:51.266Z,6.12
2022-10-03T04:06:56.646Z,6.23
2022-10-03T04:09:44.099Z,6.25
2022-10-03T04:12:22.342Z,6.05
2022-10-03T04:15:17.832Z,5.65
2022-10-03T04:18:20.956Z,4.82
2022-10-03T04:21:19.082Z,6.37
2022-10-03T04:24:20.224Z,5.22
2022-10-03T04:27:21.827Z,5.60
2022-10-03T04:30:02.352Z,4.60
2022-10-03T04:32:57.542Z,5.35
2022-10-03T04:35:53.195Z,5.90
2022-10-03T04:38:49.710Z,6.22
2022-10-03T04:41:43.514Z,6.12
2022-10-03T04:44:36.340Z,6.80
2022-10-03T04:47:23.526Z,6.57
2022-10-03T04:50:21.230Z,6.28
2022-10-03T04:53:23.930Z,5.37
2022-10-03T04:56:16.573Z,7.82
2022-10-03T04:58:56.221Z,5.93
2022-10-03T05:01:53.559Z,6.37
2022-10-03T05:05:24.932Z,6.62
2022-10-03T05:08:08.453Z,6.43
2022-10-03T05:10:59.641Z,5.97
2022-10-03T05:13:54.606Z,6.53
2022-10-03T05:16:37.887Z,6.32
2022-10-03T05:19:48.997Z,5.70
2022-10-03T05:22:46.355Z,6.68
2022-10-03T05:26:23.067Z,7.28
2022-10-03T05:29:07.425Z,7.10
2022-10-03T05:31:47.060Z,8.23
2022-10-03T05:34:37.815Z,6.68
2022-10-03T05:38:01.151Z,5.80
2022-10-03T05:40:38.199Z,6.15
2022-10-03T05:44:06.250Z,8.63
2022-10-03T05:46:45.595Z,6.70
2022-10-03T05:49:58.512Z,6.00
2022-10-03T05:53:03.412Z,6.12
2022-10-03T05:56:41.068Z,6.05
2022-10-03T05:59:33.730Z,5.97
2022-10-03T06:02:39.181Z,14.35
2022-10-03T06:05:17.685Z,9.38
2022-10-03T06:08:06.228Z,9.10
2022-10-03T06:10:50.421Z,6.57
2022-10-03T06:13:30.799Z,6.50
2022-10-03T06:16:25.510Z,5.50
2022-10-03T06:19:18.549Z,5.45
2022-10-03T06:22:25.678Z,7.12
2022-10-03T06:25:27.378Z,5.23
2022-10-03T06:28:02.798Z,4.93
2022-10-03T06:31:02.331Z,6.32
2022-10-03T06:34:13.586Z,4.82
2022-10-03T06:37:08.628Z,8.38
2022-10-03T06:39:50.504Z,7.45
2022-10-03T06:42:33.595Z,5.65
2022-10-03T06:45:31.094Z,6.80
2022-10-03T06:48:14.890Z,6.47
2022-10-03T06:51:48.959Z,5.47
2022-10-03T06:54:46.807Z,5.72
2022-10-03T06:57:30.795Z,6.90
2022-10-03T07:00:27.292Z,6.05
2022-10-03T07:03:22.041Z,7.05
2022-10-03T07:06:34.712Z,4.60
2022-10-03T07:09:34.608Z,6.32
2022-10-03T07:12:20.254Z,6.50
2022-10-03T07:15:18.483Z,6.32
2022-10-03T07:18:01.572Z,7.70
2022-10-03T07:21:01.475Z,7.57
2022-10-03T07:24:03.428Z,6.97
2022-10-03T07:27:15.535Z,6.53
2022-10-03T07:29:51.332Z,6.20
2022-10-03T07:33:01.570Z,6.25
2022-10-03T07:36:05.346Z,7.80
2022-10-03T07:39:00.401Z,6.32
2022-10-03T07:42:06.129Z,8.25
2022-10-03T07:45:04.211Z,8.70
2022-10-03T07:48:04.556Z,6.95
2022-10-03T07:50:54.800Z,5.78
2022-10-03T07:53:26.336Z,5.97
2022-10-03T07:56:23.407Z,9.50
2022-10-03T07:59:26.538Z,7.05
2022-10-03T08:02:26.127Z,6.87
2022-10-03T08:05:26.628Z,5.60
2022-10-03T08:08:36.428Z,6.22
2022-10-03T08:11:27.391Z,7.03
2022-10-03T08:14:19.513Z,7.35
2022-10-03T08:17:30.729Z,7.03
2022-10-03T08:20:06.460Z,7.07
2022-10-03T08:23:13.548Z,9.10
2022-10-03T08:26:43.652Z,6.12
2022-10-03T08:29:37.742Z,7.73
2022-10-03T08:32:32.882Z,7.12
2022-10-03T08:35:21.396Z,9.67
2022-10-03T08:38:17.474Z,6.55
2022-10-03T08:41:43.435Z,5.75
2022-10-03T08:44:44.981Z,6.80
2022-10-03T08:47:37.585Z,7.35
2022-10-03T08:50:28.841Z,8.10
2022-10-03T08:53:39.558Z,5.65
2022-10-03T08:56:13.621Z,4.57
2022-10-03T08:59:23.732Z,4.95
2022-10-03T09:02:11.528Z,6.35
2022-10-03T09:05:16.541Z,5.80
2022-10-03T09:08:20.000Z,7.65
2022-10-03T09:11:22.784Z,7.70
2022-10-03T09:14:03.403Z,6.90
2022-10-03T09:17:14.373Z,7.55
2022-10-03T09:20:20.400Z,6.87
2022-10-03T09:23:06.920Z,5.47
2022-10-03T09:25:35.132Z,5.23
2022-10-03T09:28:28.460Z,6.67
2022-10-03T09:31:29.304Z,6.35
2022-10-03T09:34:28.444Z,7.07
2022-10-03T09:37:20.392Z,7.62
2022-10-03T09:40:01.934Z,5.80
2022-10-03T09:42:58.046Z,6.85
2022-10-03T09:45:59.115Z,6.65
2022-10-03T09:49:18.615Z,7.00
2022-10-03T09:52:43.074Z,6.15
2022-10-03T09:56:05.841Z,4.85
2022-10-03T09:59:07.166Z,5.25
2022-10-03T10:01:54.593Z,6.50
2022-10-03T10:04:56.410Z,6.37
2022-10-03T10:07:32.369Z,4.62
2022-10-03T10:10:31.466Z,6.93
2022-10-03T10:14:10.226Z,9.43
2022-10-03T10:17:18.691Z,8.83
2022-10-03T10:20:29.445Z,11.48
2022-10-03T10:23:38.598Z,6.22
2022-10-03T10:26:29.538Z,6.53
2022-10-03T10:29:31.394Z,6.32
2022-10-03T10:32:25.092Z,5.62
2022-10-03T10:35:26.393Z,4.62
2022-10-03T10:38:44.347Z,5.75
2022-10-03T10:41:44.553Z,6.80
2022-10-03T10:44:47.785Z,5.68
2022-10-03T10:47:31.584Z,5.10
2022-10-03T10:50:37.449Z,5.62
2022-10-03T10:53:56.291Z,6.03
2022-10-03T10:56:50.829Z,3.90
2022-10-03T10:59:56.491Z,4.07
2022-10-03T11:03:07.014Z,5.43
2022-10-03T11:06:09.187Z,6.45
2022-10-03T11:09:02.768Z,5.97
2022-10-03T11:11:55.339Z,4.07
2022-10-03T11:15:02.498Z,3.62
2022-10-03T11:17:41.197Z,4.95
2022-10-03T11:20:47.898Z,3.87
2022-10-03T11:23:42.438Z,4.87
2022-10-03T11:26:33.033Z,5.93
2022-10-03T11:30:02.202Z,3.08
2022-10-03T11:33:07.753Z,3.67
2022-10-03T11:36:02.334Z,3.60
2022-10-03T11:38:37.010Z,4.20
2022-10-03T11:41:28.625Z,3.42
2022-10-03T11:44:05.372Z,3.87
2022-10-03T11:46:58.210Z,3.77
2022-10-03T11:49:46.840Z,3.12
2022-10-03T11:52:36.701Z,3.05
2022-10-03T11:55:43.138Z,3.30
2022-10-03T11:58:34.547Z,2.83
2022-10-03T12:01:40.214Z,4.00
2022-10-03T12:04:25.060Z,4.60
2022-10-03T12:07:19.198Z,5.55
2022-10-03T12:09:59.787Z,3.95
2022-10-03T12:12:52.326Z,4.60
2022-10-03T12:15:48.162Z,4.30
2022-10-03T12:18:34.390Z,3.90
2022-10-03T12:21:12.028Z,4.18
2022-10-03T12:24:19.469Z,4.70
2022-10-03T12:27:03.905Z,4.53
2022-10-03T12:29:40.604Z,4.68
2022-10-03T12:32:37.282Z,3.80
2022-10-03T12:35:08.210Z,3.30
2022-10-03T12:38:03.729Z,4.40
2022-10-03T12:41:00.100Z,4.47
2022-10-03T12:43:45.823Z,3.87
2022-10-03T12:46:28.757Z,3.58
2022-10-03T12:49:25.253Z,2.73
2022-10-03T12:52:00.201Z,2.65
2022-10-03T12:54:55.257Z,4.05
2022-10-03T12:57:46.172Z,4.10
2022-10-03T13:00:36.574Z,4.37
2022-10-03T13:03:55.937Z,3.83
2022-10-03T13:06:44.460Z,7.85
2022-10-03T13:09:49.883Z,4.40
2022-10-03T13:12:51.510Z,4.05
2022-10-03T13:15:38.597Z,4.57
2022-10-03T13:18:33.335Z,2.60
2022-10-03T13:21:40.646Z,4.20
2022-10-03T13:24:22.284Z,4.13
2022-10-03T13:27:29.133Z,4.03
2022-10-03T13:30:24.168Z,2.83
2022-10-03T13:33:21.678Z,2.85
2022-10-03T13:36:02.949Z,3.65
2022-10-03T13:38:51.564Z,3.17
2022-10-03T13:41:48.142Z,5.53
2022-10-03T13:44:24.596Z,3.67
2022-10-03T13:47:40.987Z,4.03
2022-10-03T13:50:27.611Z,3.80
2022-10-03T13:53:33.257Z,3.80
2022-10-03T13:56:36.903Z,3.17
2022-10-03T13:59:28.348Z,4.70
2022-10-03T14:02:14.991Z,3.45
2022-10-03T14:05:13.464Z,3.17
2022-10-03T14:08:18.504Z,2.08
2022-10-03T14:11:00.113Z,2.90
2022-10-03T14:14:07.440Z,3.87
2022-10-03T14:17:35.897Z,2.72
2022-10-03T14:20:48.030Z,2.20
2022-10-03T14:23:49.797Z,4.30
2022-10-03T14:26:30.665Z,3.45
2022-10-03T14:29:15.992Z,3.90
2022-10-03T14:31:54.889Z,4.00
2022-10-03T14:34:47.719Z,2.37
2022-10-03T14:37:27.357Z,10.55
2022-10-03T14:47:11.111Z,3.28
2022-10-03T14:49:58.895Z,6.50
2022-10-03T14:52:50.037Z,6.55
2022-10-03T14:55:57.638Z,8.07
2022-10-03T14:58:51.605Z,5.68
2022-10-03T15:02:02.161Z,2.75
2022-10-03T15:04:47.392Z,3.95
2022-10-03T15:07:16.863Z,2.85
2022-10-03T15:09:56.552Z,2.72
2022-10-03T15:13:03.599Z,4.18
2022-10-03T15:15:58.323Z,3.45
2022-10-03T15:18:46.503Z,3.53
2022-10-03T15:21:26.369Z,3.10
2022-10-03T15:24:24.927Z,3.78
2022-10-03T15:27:06.540Z,2.30
2022-10-03T15:29:46.150Z,5.78
2022-10-03T15:32:29.838Z,5.43
2022-10-03T15:35:21.123Z,4.10
2022-10-03T15:38:14.884Z,4.18
2022-10-03T15:41:02.709Z,3.25
2022-10-03T15:43:57.694Z,4.22
2022-10-03T15:47:06.062Z,4.15
2022-10-03T15:50:03.293Z,4.35
2022-10-03T15:53:42.432Z,7.32
2022-10-03T15:56:50.883Z,4.37
2022-10-03T15:59:28.352Z,7.43
2022-10-03T16:02:10.162Z,14.97
2022-10-03T16:04:48.745Z,10.10
2022-10-03T16:08:03.390Z,4.57
2022-10-03T16:10:46.259Z,4.43
2022-10-03T16:13:26.545Z,5.45
2022-10-03T16:19:28.644Z,15.27
2022-10-03T16:22:14.000Z,21.87
2022-10-03T16:25:14.119Z,13.10
2022-10-03T16:27:55.739Z,18.08
2022-10-03T16:30:38.267Z,5.70
2022-10-03T16:33:45.410Z,7.03
2022-10-03T16:36:25.832Z,4.70
2022-10-03T16:39:05.762Z,4.95
2022-10-03T16:41:50.297Z,3.30
2022-10-03T16:44:34.791Z,3.90
2022-10-03T16:47:08.042Z,5.33
2022-10-03T16:50:15.844Z,4.12
2022-10-03T16:52:48.864Z,4.55
2022-10-03T16:55:46.051Z,4.70
2022-10-03T16:58:32.975Z,6.15
2022-10-03T17:01:55.125Z,5.93
2022-10-03T17:04:59.485Z,9.03
2022-10-03T17:07:51.590Z,4.57
2022-10-03T17:10:38.937Z,4.70
2022-10-03T17:13:19.783Z,4.45
2022-10-03T17:16:02.833Z,7.07
2022-10-03T17:18:47.839Z,5.67
2022-10-03T17:21:22.937Z,4.97
2022-10-03T17:24:07.819Z,5.65
2022-10-03T17:26:53.757Z,4.22
2022-10-03T17:29:42.966Z,4.72
2022-10-03T17:32:24.053Z,5.50
2022-10-03T17:35:22.343Z,5.85
2022-10-03T17:41:55.080Z,4.20
2022-10-03T17:44:54.416Z,3.80
2022-10-03T17:47:56.278Z,5.57
2022-10-03T17:50:51.050Z,5.17
2022-10-03T17:53:42.308Z,6.43
2022-10-03T17:56:22.101Z,4.60
2022-10-03T17:59:22.109Z,6.50
2022-10-03T18:02:02.470Z,4.18
2022-10-03T18:04:59.277Z,4.35
2022-10-03T18:07:29.326Z,11.10
2022-10-03T18:10:00.846Z,8.23
2022-10-03T18:12:43.424Z,15.63
2022-10-03T18:15:51.368Z,13.57
2022-10-03T18:18:44.633Z,16.80
2022-10-03T18:21:41.845Z,7.55
2022-10-03T18:24:38.381Z,9.32
2022-10-03T18:27:46.775Z,12.45
2022-10-03T18:30:50.331Z,8.50
2022-10-03T18:33:42.728Z,8.48
2022-10-03T18:36:21.551Z,10.13
2022-10-03T18:39:08.761Z,8.90
2022-10-03T18:41:46.033Z,9.38
2022-10-03T18:44:42.910Z,8.90
2022-10-03T18:47:20.009Z,7.07
2022-10-03T18:50:27.332Z,5.20
2022-10-03T18:53:09.687Z,6.53
2022-10-03T18:56:03.327Z,6.28
2022-10-03T18:59:12.953Z,10.47
2022-10-03T19:01:57.223Z,6.72
2022-10-03T19:04:53.852Z,5.93
2022-10-03T19:07:35.702Z,5.87
2022-10-03T19:10:52.878Z,6.55
2022-10-03T19:13:41.672Z,9.95
2022-10-03T19:16:19.757Z,6.97
2022-10-03T19:19:17.813Z,6.90
2022-10-03T19:21:53.682Z,5.00
2022-10-03T19:24:56.674Z,6.50
2022-10-03T19:27:42.232Z,6.70
2022-10-03T19:30:20.402Z,6.03
2022-10-03T19:33:23.316Z,5.53
2022-10-03T19:35:57.145Z,6.05
2022-10-03T19:38:32.774Z,5.28
2022-10-03T19:41:23.100Z,5.78
2022-10-03T19:43:55.091Z,4.23
2022-10-03T19:47:09.972Z,4.75
2022-10-03T19:50:07.952Z,5.50
2022-10-03T19:52:42.154Z,6.30
2022-10-03T19:55:27.876Z,4.30
2022-10-03T19:58:00.484Z,5.82
2022-10-03T20:00:37.708Z,6.05
2022-10-03T20:03:06.854Z,7.20
2022-10-03T20:06:01.750Z,5.85
2022-10-03T20:09:01.549Z,6.18
2022-10-03T20:11:41.634Z,5.78
2022-10-03T20:14:29.635Z,8.32
2022-10-03T20:17:15.998Z,5.50
2022-10-03T20:19:56.155Z,5.40
2022-10-03T20:22:31.595Z,7.70
2022-10-03T20:25:01.241Z,5.37
2022-10-03T20:27:36.943Z,5.35
2022-10-03T20:30:26.747Z,5.80
2022-10-03T20:32:56.205Z,4.10
2022-10-03T20:35:29.063Z,9.93
2022-10-03T20:38:05.329Z,6.50
2022-10-03T20:40:38.729Z,5.23
2022-10-03T20:43:27.960Z,4.97
2022-10-03T20:46:10.739Z,4.32
2022-10-03T20:48:46.976Z,6.60
2022-10-03T20:51:23.221Z,6.62
2022-10-03T20:53:54.924Z,4.78
2022-10-03T20:56:32.468Z,6.50
2022-10-03T20:59:09.356Z,6.78
2022-10-03T21:01:38.877Z,6.47
2022-10-03T21:04:21.140Z,5.90
2022-10-03T21:06:57.986Z,6.25
2022-10-03T21:09:48.080Z,6.20
2022-10-03T21:12:23.870Z,6.43
2022-10-03T21:15:00.653Z,5.67
2022-10-03T21:17:30.321Z,7.55
2022-10-03T21:20:01.741Z,5.07
2022-10-03T21:22:29.878Z,5.43
2022-10-03T21:25:00.252Z,5.40
2022-10-03T21:27:28.100Z,4.10
2022-10-03T21:29:57.636Z,6.57
2022-10-03T21:32:56.533Z,5.85
2022-10-03T21:35:44.727Z,6.95
2022-10-03T21:38:27.141Z,8.05
2022-10-03T21:41:15.049Z,7.68
2022-10-03T21:44:01.663Z,6.05
2022-10-03T21:47:04.473Z,7.15
2022-10-03T21:50:01.741Z,5.03
2022-10-03T21:52:55.734Z,5.45
2022-10-03T21:56:09.391Z,5.50
2022-10-03T21:59:11.718Z,6.30
2022-10-03T22:01:59.825Z,7.87
2022-10-03T22:04:51.931Z,5.47
2022-10-03T22:07:38.905Z,6.53
2022-10-03T22:10:21.287Z,7.00
2022-10-03T22:12:56.831Z,7.30
2022-10-03T22:15:27.955Z,6.65
2022-10-03T22:18:00.725Z,5.62
2022-10-03T22:20:33.618Z,5.62
2022-10-03T22:23:24.161Z,8.83
2022-10-03T22:25:55.728Z,5.40
2022-10-03T22:28:40.466Z,8.23
2022-10-03T22:31:28.960Z,5.47
2022-10-03T22:34:08.866Z,5.25
2022-10-03T22:36:37.480Z,7.60
2022-10-03T22:39:10.713Z,6.10
2022-10-03T22:41:39.964Z,6.90
2022-10-03T22:44:10.619Z,9.32
2022-10-03T22:46:41.651Z,6.80
2022-10-03T22:49:18.767Z,6.30
2022-10-03T22:51:47.817Z,6.53
2022-10-03T22:54:17.668Z,9.05
2022-10-03T22:56:48.063Z,6.10
2022-10-03T22:59:23.772Z,7.22
2022-10-03T23:01:52.918Z,7.25
2022-10-03T23:04:42.600Z,6.72
2022-10-03T23:07:30.330Z,8.27
2022-10-03T23:10:09.734Z,8.20
2022-10-03T23:12:42.360Z,6.15
2022-10-03T23:15:20.940Z,6.67
2022-10-03T23:17:48.785Z,5.20
2022-10-03T23:20:46.560Z,5.90
2022-10-03T23:23:26.280Z,7.68
2022-10-03T23:26:25.413Z,7.17
2022-10-03T23:29:07.490Z,6.55
2022-10-03T23:32:00.288Z,6.57
2022-10-03T23:34:36.796Z,5.80
2022-10-03T23:37:14.119Z,7.50
2022-10-03T23:40:07.751Z,7.68
2022-10-03T23:42:43.741Z,6.05
2022-10-03T23:45:29.641Z,7.87
2022-10-03T23:48:10.788Z,7.78
2022-10-03T23:50:54.325Z,8.40
2022-10-03T23:53:32.669Z,7.75
2022-10-03T23:56:02.685Z,8.40
2022-10-03T23:58:36.734Z,7.53
